sensor_id;sensor_type;location;lat;lon;timestamp;temperature;humidity
38866;DHT22;62686;48.984;8.394;2022-08-19T00:00:44;19.80;99.90
38866;DHT22;62686;48.984;8.394;2022-08-19T00:03:12;19.80;99.90
38866;DHT22;62686;48.984;8.394;2022-08-19T00:05:40;19.90;99.90
38866;DHT22;62686;48.984;8.394;2022-08-19T00:08:09;19.90;99.90
38866;DHT22;62686;48.984;8.394;2022-08-19T00:10:37;19.90;99.90
38866;DHT22;62686;48.984;8.394;2022-08-19T00:13:05;20.00;99.90
38866;DHT22;62686;48.984;8.394;2022-08-19T00:15:33;20.00;99.90
38866;DHT22;62686;48.984;8.394;2022-08-19T00:18:03;20.00;99.90
38866;DHT22;62686;48.984;8.394;2022-08-19T00:20:31;20.00;99.90
38866;DHT22;62686;48.984;8.394;2022-08-19T00:22:59;20.00;99.90
38866;DHT22;62686;48.984;8.394;2022-08-19T00:25:27;20.00;99.90
38866;DHT22;62686;48.984;8.394;2022-08-19T00:27:56;20.00;99.90
38866;DHT22;62686;48.984;8.394;2022-08-19T00:30:25;20.00;99.90
38866;DHT22;62686;48.984;8.394;2022-08-19T00:32:54;20.00;99.90
38866;DHT22;62686;48.984;8.394;2022-08-19T00:35:24;20.00;99.90
38866;DHT22;62686;48.984;8.394;2022-08-19T00:37:54;20.00;99.90
38866;DHT22;62686;48.984;8.394;2022-08-19T00:40:23;20.00;99.90
38866;DHT22;62686;48.984;8.394;2022-08-19T00:42:51;20.00;99.90
38866;DHT22;62686;48.984;8.394;2022-08-19T00:45:24;20.10;99.90
38866;DHT22;62686;48.984;8.394;2022-08-19T00:47:53;20.10;99.90
38866;DHT22;62686;48.984;8.394;2022-08-19T00:50:21;20.10;99.90
38866;DHT22;62686;48.984;8.394;2022-08-19T00:52:52;20.00;99.90
38866;DHT22;62686;48.984;8.394;2022-08-19T00:55:23;20.00;99.90
38866;DHT22;62686;48.984;8.394;2022-08-19T00:57:56;20.10;99.90
38866;DHT22;62686;48.984;8.394;2022-08-19T01:00:26;20.10;99.90
38866;DHT22;62686;48.984;8.394;2022-08-19T01:02:55;20.20;99.90
38866;DHT22;62686;48.984;8.394;2022-08-19T01:05:26;20.20;99.90
38866;DHT22;62686;48.984;8.394;2022-08-19T01:07:59;20.20;99.90
38866;DHT22;62686;48.984;8.394;2022-08-19T01:10:31;20.30;99.90
38866;DHT22;62686;48.984;8.394;2022-08-19T01:13:03;20.30;99.90
38866;DHT22;62686;48.984;8.394;2022-08-19T01:15:38;20.30;99.90
38866;DHT22;62686;48.984;8.394;2022-08-19T01:18:09;20.40;99.90
38866;DHT22;62686;48.984;8.394;2022-08-19T01:20:39;20.40;99.90
38866;DHT22;62686;48.984;8.394;2022-08-19T01:23:10;20.30;99.90
38866;DHT22;62686;48.984;8.394;2022-08-19T01:25:42;20.30;99.90
38866;DHT22;62686;48.984;8.394;2022-08-19T01:28:16;20.40;99.90
38866;DHT22;62686;48.984;8.394;2022-08-19T01:30:45;20.30;99.90
38866;DHT22;62686;48.984;8.394;2022-08-19T01:33:14;20.30;99.90
38866;DHT22;62686;48.984;8.394;2022-08-19T01:35:42;20.30;99.90
38866;DHT22;62686;48.984;8.394;2022-08-19T01:38:22;20.30;99.90
38866;DHT22;62686;48.984;8.394;2022-08-19T01:40:51;20.40;99.90
38866;DHT22;62686;48.984;8.394;2022-08-19T01:43:20;20.30;99.90
38866;DHT22;62686;48.984;8.394;2022-08-19T01:45:48;20.30;99.90
38866;DHT22;62686;48.984;8.394;2022-08-19T01:48:17;20.30;99.90
38866;DHT22;62686;48.984;8.394;2022-08-19T01:50:45;20.30;99.90
38866;DHT22;62686;48.984;8.394;2022-08-19T01:53:16;20.30;99.90
38866;DHT22;62686;48.984;8.394;2022-08-19T01:55:44;20.20;99.90
38866;DHT22;62686;48.984;8.394;2022-08-19T01:58:16;20.20;99.90
38866;DHT22;62686;48.984;8.394;2022-08-19T02:00:45;20.20;99.90
38866;DHT22;62686;48.984;8.394;2022-08-19T02:03:13;20.20;99.90
38866;DHT22;62686;48.984;8.394;2022-08-19T02:05:44;20.20;99.90
38866;DHT22;62686;48.984;8.394;2022-08-19T02:08:12;20.20;99.90
38866;DHT22;62686;48.984;8.394;2022-08-19T02:10:44;20.10;99.90
38866;DHT22;62686;48.984;8.394;2022-08-19T02:13:13;20.10;99.90
38866;DHT22;62686;48.984;8.394;2022-08-19T02:15:41;20.10;99.90
38866;DHT22;62686;48.984;8.394;2022-08-19T02:18:09;20.10;99.90
38866;DHT22;62686;48.984;8.394;2022-08-19T02:20:39;20.10;99.90
38866;DHT22;62686;48.984;8.394;2022-08-19T02:23:08;20.10;99.90
38866;DHT22;62686;48.984;8.394;2022-08-19T02:25:37;20.00;99.90
38866;DHT22;62686;48.984;8.394;2022-08-19T02:28:06;20.00;99.90
38866;DHT22;62686;48.984;8.394;2022-08-19T02:30:35;20.00;99.90
38866;DHT22;62686;48.984;8.394;2022-08-19T02:33:03;20.00;99.90
38866;DHT22;62686;48.984;8.394;2022-08-19T02:35:31;19.90;99.90
38866;DHT22;62686;48.984;8.394;2022-08-19T02:37:59;19.90;99.90
38866;DHT22;62686;48.984;8.394;2022-08-19T02:40:48;20.00;99.90
38866;DHT22;62686;48.984;8.394;2022-08-19T02:43:20;20.00;99.90
38866;DHT22;62686;48.984;8.394;2022-08-19T02:45:49;19.90;99.90
38866;DHT22;62686;48.984;8.394;2022-08-19T02:48:19;19.90;99.90
38866;DHT22;62686;48.984;8.394;2022-08-19T02:50:48;20.00;99.90
38866;DHT22;62686;48.984;8.394;2022-08-19T02:53:22;19.90;99.90
38866;DHT22;62686;48.984;8.394;2022-08-19T02:55:51;19.90;99.90
38866;DHT22;62686;48.984;8.394;2022-08-19T02:58:21;19.90;99.90
38866;DHT22;62686;48.984;8.394;2022-08-19T03:00:52;20.00;99.90
38866;DHT22;62686;48.984;8.394;2022-08-19T03:03:21;19.90;99.90
38866;DHT22;62686;48.984;8.394;2022-08-19T03:05:49;19.90;99.90
38866;DHT22;62686;48.984;8.394;2022-08-19T03:08:17;20.00;99.90
38866;DHT22;62686;48.984;8.394;2022-08-19T03:10:46;20.00;99.90
38866;DHT22;62686;48.984;8.394;2022-08-19T03:13:17;20.00;99.90
38866;DHT22;62686;48.984;8.394;2022-08-19T03:15:47;20.00;99.90
38866;DHT22;62686;48.984;8.394;2022-08-19T03:18:16;20.00;99.90
38866;DHT22;62686;48.984;8.394;2022-08-19T03:20:46;20.00;99.90
38866;DHT22;62686;48.984;8.394;2022-08-19T03:23:15;20.00;99.90
38866;DHT22;62686;48.984;8.394;2022-08-19T03:25:45;19.90;99.90
38866;DHT22;62686;48.984;8.394;2022-08-19T03:28:15;19.80;99.90
38866;DHT22;62686;48.984;8.394;2022-08-19T03:30:56;19.80;99.90
38866;DHT22;62686;48.984;8.394;2022-08-19T03:33:25;19.70;99.90
38866;DHT22;62686;48.984;8.394;2022-08-19T03:36:05;19.60;99.90
38866;DHT22;62686;48.984;8.394;2022-08-19T03:38:35;19.70;99.90
38866;DHT22;62686;48.984;8.394;2022-08-19T03:41:06;19.60;99.90
38866;DHT22;62686;48.984;8.394;2022-08-19T03:43:35;19.60;99.90
38866;DHT22;62686;48.984;8.394;2022-08-19T03:46:08;19.60;99.90
38866;DHT22;62686;48.984;8.394;2022-08-19T03:48:39;19.60;99.90
38866;DHT22;62686;48.984;8.394;2022-08-19T03:51:14;19.50;99.90
38866;DHT22;62686;48.984;8.394;2022-08-19T03:53:43;19.50;99.90
38866;DHT22;62686;48.984;8.394;2022-08-19T03:56:11;19.50;99.90
38866;DHT22;62686;48.984;8.394;2022-08-19T03:58:40;19.50;99.90
38866;DHT22;62686;48.984;8.394;2022-08-19T04:01:12;19.40;99.90
38866;DHT22;62686;48.984;8.394;2022-08-19T04:03:41;19.40;99.90
38866;DHT22;62686;48.984;8.394;2022-08-19T04:06:10;19.40;99.90
38866;DHT22;62686;48.984;8.394;2022-08-19T04:08:40;19.40;99.90
38866;DHT22;62686;48.984;8.394;2022-08-19T04:11:09;19.30;99.90
38866;DHT22;62686;48.984;8.394;2022-08-19T04:13:38;19.40;99.90
38866;DHT22;62686;48.984;8.394;2022-08-19T04:16:06;19.30;99.90
38866;DHT22;62686;48.984;8.394;2022-08-19T04:18:38;19.30;99.90
38866;DHT22;62686;48.984;8.394;2022-08-19T04:21:08;19.40;99.90
38866;DHT22;62686;48.984;8.394;2022-08-19T04:23:36;19.40;99.90
38866;DHT22;62686;48.984;8.394;2022-08-19T04:26:04;19.40;99.90
38866;DHT22;62686;48.984;8.394;2022-08-19T04:28:32;19.40;99.90
38866;DHT22;62686;48.984;8.394;2022-08-19T04:31:01;19.40;99.90
38866;DHT22;62686;48.984;8.394;2022-08-19T04:33:29;19.40;99.90
38866;DHT22;62686;48.984;8.394;2022-08-19T04:35:58;19.40;99.90
38866;DHT22;62686;48.984;8.394;2022-08-19T04:38:26;19.40;99.90
38866;DHT22;62686;48.984;8.394;2022-08-19T04:40:55;19.40;99.90
38866;DHT22;62686;48.984;8.394;2022-08-19T04:43:45;19.40;99.90
38866;DHT22;62686;48.984;8.394;2022-08-19T04:46:15;19.40;99.90
38866;DHT22;62686;48.984;8.394;2022-08-19T04:48:44;19.40;99.90
38866;DHT22;62686;48.984;8.394;2022-08-19T04:51:14;19.40;99.90
38866;DHT22;62686;48.984;8.394;2022-08-19T04:53:42;19.50;99.90
38866;DHT22;62686;48.984;8.394;2022-08-19T04:56:13;19.50;99.90
38866;DHT22;62686;48.984;8.394;2022-08-19T04:58:43;19.60;99.90
38866;DHT22;62686;48.984;8.394;2022-08-19T05:01:13;19.70;99.90
38866;DHT22;62686;48.984;8.394;2022-08-19T05:03:41;19.80;99.90
38866;DHT22;62686;48.984;8.394;2022-08-19T05:06:12;19.90;99.90
38866;DHT22;62686;48.984;8.394;2022-08-19T05:08:43;20.00;99.90
38866;DHT22;62686;48.984;8.394;2022-08-19T05:11:15;20.10;99.90
38866;DHT22;62686;48.984;8.394;2022-08-19T05:13:44;20.10;99.90
38866;DHT22;62686;48.984;8.394;2022-08-19T05:16:13;20.20;99.90
38866;DHT22;62686;48.984;8.394;2022-08-19T05:18:42;20.20;99.90
38866;DHT22;62686;48.984;8.394;2022-08-19T05:21:28;20.20;99.90
38866;DHT22;62686;48.984;8.394;2022-08-19T05:24:16;20.20;99.90
38866;DHT22;62686;48.984;8.394;2022-08-19T05:26:47;20.30;99.90
38866;DHT22;62686;48.984;8.394;2022-08-19T05:29:17;20.30;99.90
38866;DHT22;62686;48.984;8.394;2022-08-19T05:31:47;20.40;99.90
38866;DHT22;62686;48.984;8.394;2022-08-19T05:34:17;20.40;99.90
38866;DHT22;62686;48.984;8.394;2022-08-19T05:36:45;20.50;99.90
38866;DHT22;62686;48.984;8.394;2022-08-19T05:39:17;20.50;99.90
38866;DHT22;62686;48.984;8.394;2022-08-19T05:41:48;20.60;99.90
38866;DHT22;62686;48.984;8.394;2022-08-19T05:44:17;20.70;99.90
38866;DHT22;62686;48.984;8.394;2022-08-19T05:46:46;20.80;99.90
38866;DHT22;62686;48.984;8.394;2022-08-19T05:49:16;20.90;99.90
38866;DHT22;62686;48.984;8.394;2022-08-19T05:51:44;20.90;99.90
38866;DHT22;62686;48.984;8.394;2022-08-19T05:54:12;21.00;99.90
38866;DHT22;62686;48.984;8.394;2022-08-19T05:56:43;21.10;99.90
38866;DHT22;62686;48.984;8.394;2022-08-19T05:59:15;21.20;99.90
38866;DHT22;62686;48.984;8.394;2022-08-19T06:01:47;21.20;99.90
38866;DHT22;62686;48.984;8.394;2022-08-19T06:04:18;21.20;99.90
38866;DHT22;62686;48.984;8.394;2022-08-19T06:06:48;21.30;99.90
38866;DHT22;62686;48.984;8.394;2022-08-19T06:09:17;21.20;99.90
38866;DHT22;62686;48.984;8.394;2022-08-19T06:11:48;21.30;99.90
38866;DHT22;62686;48.984;8.394;2022-08-19T06:14:23;21.30;99.90
38866;DHT22;62686;48.984;8.394;2022-08-19T06:16:51;21.20;99.90
38866;DHT22;62686;48.984;8.394;2022-08-19T06:19:21;21.20;99.90
38866;DHT22;62686;48.984;8.394;2022-08-19T06:21:52;21.10;99.90
38866;DHT22;62686;48.984;8.394;2022-08-19T06:24:23;21.10;99.90
38866;DHT22;62686;48.984;8.394;2022-08-19T06:26:55;21.10;99.90
38866;DHT22;62686;48.984;8.394;2022-08-19T06:29:26;21.10;99.90
38866;DHT22;62686;48.984;8.394;2022-08-19T06:31:56;21.10;99.90
38866;DHT22;62686;48.984;8.394;2022-08-19T06:34:25;21.20;99.90
38866;DHT22;62686;48.984;8.394;2022-08-19T06:36:56;21.30;99.90
38866;DHT22;62686;48.984;8.394;2022-08-19T06:39:27;21.40;99.90
38866;DHT22;62686;48.984;8.394;2022-08-19T06:41:59;21.50;99.90
38866;DHT22;62686;48.984;8.394;2022-08-19T06:44:29;21.60;99.90
38866;DHT22;62686;48.984;8.394;2022-08-19T06:47:04;21.70;99.90
38866;DHT22;62686;48.984;8.394;2022-08-19T06:49:33;21.90;99.90
38866;DHT22;62686;48.984;8.394;2022-08-19T06:52:02;22.00;99.90
38866;DHT22;62686;48.984;8.394;2022-08-19T06:54:31;22.00;99.90
38866;DHT22;62686;48.984;8.394;2022-08-19T06:57:01;22.10;99.90
38866;DHT22;62686;48.984;8.394;2022-08-19T06:59:31;22.20;99.90
38866;DHT22;62686;48.984;8.394;2022-08-19T07:02:02;22.30;99.90
38866;DHT22;62686;48.984;8.394;2022-08-19T07:04:34;22.60;99.90
38866;DHT22;62686;48.984;8.394;2022-08-19T07:07:05;22.90;99.90
38866;DHT22;62686;48.984;8.394;2022-08-19T07:09:37;23.10;99.90
38866;DHT22;62686;48.984;8.394;2022-08-19T07:12:08;23.20;99.90
38866;DHT22;62686;48.984;8.394;2022-08-19T07:14:38;23.20;99.90
38866;DHT22;62686;48.984;8.394;2022-08-19T07:17:09;23.30;99.90
38866;DHT22;62686;48.984;8.394;2022-08-19T07:19:39;23.50;99.90
38866;DHT22;62686;48.984;8.394;2022-08-19T07:22:09;23.70;99.90
38866;DHT22;62686;48.984;8.394;2022-08-19T07:24:38;23.90;99.90
38866;DHT22;62686;48.984;8.394;2022-08-19T07:27:08;24.00;99.90
38866;DHT22;62686;48.984;8.394;2022-08-19T07:29:37;24.20;99.90
38866;DHT22;62686;48.984;8.394;2022-08-19T07:32:06;24.30;99.90
38866;DHT22;62686;48.984;8.394;2022-08-19T07:34:35;24.20;99.90
38866;DHT22;62686;48.984;8.394;2022-08-19T07:37:04;24.30;99.90
38866;DHT22;62686;48.984;8.394;2022-08-19T07:39:35;24.40;99.90
38866;DHT22;62686;48.984;8.394;2022-08-19T07:42:07;24.90;99.90
38866;DHT22;62686;48.984;8.394;2022-08-19T07:44:37;25.20;99.90
38866;DHT22;62686;48.984;8.394;2022-08-19T07:47:06;25.40;99.90
38866;DHT22;62686;48.984;8.394;2022-08-19T07:49:34;25.70;99.90
38866;DHT22;62686;48.984;8.394;2022-08-19T07:52:06;25.60;99.90
38866;DHT22;62686;48.984;8.394;2022-08-19T07:54:36;25.50;99.90
38866;DHT22;62686;48.984;8.394;2022-08-19T07:57:05;25.50;99.90
38866;DHT22;62686;48.984;8.394;2022-08-19T07:59:34;25.00;99.90
38866;DHT22;62686;48.984;8.394;2022-08-19T08:02:04;25.10;99.90
38866;DHT22;62686;48.984;8.394;2022-08-19T08:04:33;24.80;99.90
38866;DHT22;62686;48.984;8.394;2022-08-19T08:07:18;24.60;99.90
38866;DHT22;62686;48.984;8.394;2022-08-19T08:10:06;24.70;99.90
38866;DHT22;62686;48.984;8.394;2022-08-19T08:12:39;24.60;99.90
38866;DHT22;62686;48.984;8.394;2022-08-19T08:15:10;24.70;99.90
38866;DHT22;62686;48.984;8.394;2022-08-19T08:17:40;25.10;99.90
38866;DHT22;62686;48.984;8.394;2022-08-19T08:20:09;25.40;99.90
38866;DHT22;62686;48.984;8.394;2022-08-19T08:22:42;25.80;99.90
38866;DHT22;62686;48.984;8.394;2022-08-19T08:25:29;26.30;99.90
38866;DHT22;62686;48.984;8.394;2022-08-19T08:27:57;26.80;99.90
38866;DHT22;62686;48.984;8.394;2022-08-19T08:30:28;27.30;99.90
38866;DHT22;62686;48.984;8.394;2022-08-19T08:32:58;27.50;99.90
38866;DHT22;62686;48.984;8.394;2022-08-19T08:35:27;27.70;99.90
38866;DHT22;62686;48.984;8.394;2022-08-19T08:37:55;27.40;99.90
38866;DHT22;62686;48.984;8.394;2022-08-19T08:40:28;27.70;99.90
38866;DHT22;62686;48.984;8.394;2022-08-19T08:43:00;28.10;99.90
38866;DHT22;62686;48.984;8.394;2022-08-19T08:45:33;28.30;99.90
38866;DHT22;62686;48.984;8.394;2022-08-19T08:48:10;28.60;99.90
38866;DHT22;62686;48.984;8.394;2022-08-19T08:50:43;28.80;99.90
38866;DHT22;62686;48.984;8.394;2022-08-19T08:53:16;29.50;99.90
38866;DHT22;62686;48.984;8.394;2022-08-19T08:55:45;30.60;99.90
38866;DHT22;62686;48.984;8.394;2022-08-19T08:58:19;31.40;99.90
38866;DHT22;62686;48.984;8.394;2022-08-19T09:00:49;31.40;99.40
38866;DHT22;62686;48.984;8.394;2022-08-19T09:03:21;31.30;99.30
38866;DHT22;62686;48.984;8.394;2022-08-19T09:05:56;31.30;98.40
38866;DHT22;62686;48.984;8.394;2022-08-19T09:08:33;31.00;97.80
38866;DHT22;62686;48.984;8.394;2022-08-19T09:11:07;30.50;98.00
38866;DHT22;62686;48.984;8.394;2022-08-19T09:13:44;30.40;98.40
38866;DHT22;62686;48.984;8.394;2022-08-19T09:16:18;30.30;99.00
38866;DHT22;62686;48.984;8.394;2022-08-19T09:18:51;29.90;99.90
38866;DHT22;62686;48.984;8.394;2022-08-19T09:21:21;29.50;99.20
38866;DHT22;62686;48.984;8.394;2022-08-19T09:23:52;29.50;99.60
38866;DHT22;62686;48.984;8.394;2022-08-19T09:26:22;29.50;99.90
38866;DHT22;62686;48.984;8.394;2022-08-19T09:28:52;29.60;99.50
38866;DHT22;62686;48.984;8.394;2022-08-19T09:31:23;29.70;99.10
38866;DHT22;62686;48.984;8.394;2022-08-19T09:33:54;30.00;98.80
38866;DHT22;62686;48.984;8.394;2022-08-19T09:36:25;30.10;98.30
38866;DHT22;62686;48.984;8.394;2022-08-19T09:38:56;30.50;98.20
38866;DHT22;62686;48.984;8.394;2022-08-19T09:41:25;30.80;97.10
38866;DHT22;62686;48.984;8.394;2022-08-19T09:43:55;31.00;96.00
38866;DHT22;62686;48.984;8.394;2022-08-19T09:46:27;31.60;95.80
38866;DHT22;62686;48.984;8.394;2022-08-19T09:49:00;31.80;94.20
38866;DHT22;62686;48.984;8.394;2022-08-19T09:51:28;32.50;94.20
38866;DHT22;62686;48.984;8.394;2022-08-19T09:54:00;32.90;92.90
38866;DHT22;62686;48.984;8.394;2022-08-19T09:56:31;33.00;92.60
38866;DHT22;62686;48.984;8.394;2022-08-19T09:59:00;33.30;91.10
38866;DHT22;62686;48.984;8.394;2022-08-19T10:01:30;33.30;90.60
38866;DHT22;62686;48.984;8.394;2022-08-19T10:04:00;32.90;90.90
38866;DHT22;62686;48.984;8.394;2022-08-19T10:06:31;32.30;90.80
38866;DHT22;62686;48.984;8.394;2022-08-19T10:09:00;31.70;91.40
38866;DHT22;62686;48.984;8.394;2022-08-19T10:11:30;31.60;91.80
38866;DHT22;62686;48.984;8.394;2022-08-19T10:13:58;31.60;92.10
38866;DHT22;62686;48.984;8.394;2022-08-19T10:16:27;31.70;91.80
38866;DHT22;62686;48.984;8.394;2022-08-19T10:18:56;31.40;92.10
38866;DHT22;62686;48.984;8.394;2022-08-19T10:21:29;31.30;92.30
38866;DHT22;62686;48.984;8.394;2022-08-19T10:24:01;30.90;92.90
38866;DHT22;62686;48.984;8.394;2022-08-19T10:26:33;30.60;92.30
38866;DHT22;62686;48.984;8.394;2022-08-19T10:29:03;30.70;92.90
38866;DHT22;62686;48.984;8.394;2022-08-19T10:31:33;31.50;92.90
38866;DHT22;62686;48.984;8.394;2022-08-19T10:34:02;31.80;92.20
38866;DHT22;62686;48.984;8.394;2022-08-19T10:36:34;31.80;91.20
38866;DHT22;62686;48.984;8.394;2022-08-19T10:39:06;31.80;91.40
38866;DHT22;62686;48.984;8.394;2022-08-19T10:41:36;31.60;90.90
38866;DHT22;62686;48.984;8.394;2022-08-19T10:44:07;31.90;90.70
38866;DHT22;62686;48.984;8.394;2022-08-19T10:46:40;31.20;91.10
38866;DHT22;62686;48.984;8.394;2022-08-19T10:49:11;31.00;91.10
38866;DHT22;62686;48.984;8.394;2022-08-19T10:51:41;31.00;91.90
38866;DHT22;62686;48.984;8.394;2022-08-19T10:54:27;30.80;91.70
38866;DHT22;62686;48.984;8.394;2022-08-19T10:57:09;31.10;91.50
38866;DHT22;62686;48.984;8.394;2022-08-19T10:59:38;31.40;91.90
38866;DHT22;62686;48.984;8.394;2022-08-19T11:02:09;31.60;90.30
38866;DHT22;62686;48.984;8.394;2022-08-19T11:04:38;31.80;90.10
38866;DHT22;62686;48.984;8.394;2022-08-19T11:07:09;31.90;91.10
38866;DHT22;62686;48.984;8.394;2022-08-19T11:09:40;32.30;90.20
38866;DHT22;62686;48.984;8.394;2022-08-19T11:12:10;32.70;89.20
38866;DHT22;62686;48.984;8.394;2022-08-19T11:14:39;32.60;87.90
38866;DHT22;62686;48.984;8.394;2022-08-19T11:17:07;32.00;89.10
38866;DHT22;62686;48.984;8.394;2022-08-19T11:19:37;31.90;89.20
38866;DHT22;62686;48.984;8.394;2022-08-19T11:22:09;31.50;90.20
38866;DHT22;62686;48.984;8.394;2022-08-19T11:24:37;31.50;90.20
38866;DHT22;62686;48.984;8.394;2022-08-19T11:27:07;31.50;90.20
38866;DHT22;62686;48.984;8.394;2022-08-19T11:29:37;31.70;91.00
38866;DHT22;62686;48.984;8.394;2022-08-19T11:32:08;32.10;89.70
38866;DHT22;62686;48.984;8.394;2022-08-19T11:34:37;31.70;90.30
38866;DHT22;62686;48.984;8.394;2022-08-19T11:37:06;30.40;90.90
38866;DHT22;62686;48.984;8.394;2022-08-19T11:39:37;29.50;91.90
38866;DHT22;62686;48.984;8.394;2022-08-19T11:42:06;29.30;92.90
38866;DHT22;62686;48.984;8.394;2022-08-19T11:44:54;29.00;93.00
38866;DHT22;62686;48.984;8.394;2022-08-19T11:47:23;29.00;93.00
38866;DHT22;62686;48.984;8.394;2022-08-19T11:49:51;29.40;93.20
38866;DHT22;62686;48.984;8.394;2022-08-19T11:52:20;30.70;91.60
38866;DHT22;62686;48.984;8.394;2022-08-19T11:54:49;32.60;89.00
38866;DHT22;62686;48.984;8.394;2022-08-19T11:57:18;34.60;85.10
38866;DHT22;62686;48.984;8.394;2022-08-19T11:59:51;35.20;81.70
38866;DHT22;62686;48.984;8.394;2022-08-19T12:02:19;35.90;78.30
38866;DHT22;62686;48.984;8.394;2022-08-19T12:04:48;35.70;79.20
38866;DHT22;62686;48.984;8.394;2022-08-19T12:07:16;36.50;75.70
38866;DHT22;62686;48.984;8.394;2022-08-19T12:09:45;37.50;75.50
38866;DHT22;62686;48.984;8.394;2022-08-19T12:12:14;38.20;72.40
38866;DHT22;62686;48.984;8.394;2022-08-19T12:14:43;37.70;71.80
38866;DHT22;62686;48.984;8.394;2022-08-19T12:17:13;38.50;70.80
38866;DHT22;62686;48.984;8.394;2022-08-19T12:19:41;37.40;70.00
38866;DHT22;62686;48.984;8.394;2022-08-19T12:22:09;35.80;71.00
38866;DHT22;62686;48.984;8.394;2022-08-19T12:24:37;34.30;75.00
38866;DHT22;62686;48.984;8.394;2022-08-19T12:27:06;33.20;78.00
38866;DHT22;62686;48.984;8.394;2022-08-19T12:29:35;31.60;82.20
38866;DHT22;62686;48.984;8.394;2022-08-19T12:32:04;30.60;86.20
38866;DHT22;62686;48.984;8.394;2022-08-19T12:34:32;29.80;87.90
38866;DHT22;62686;48.984;8.394;2022-08-19T12:37:02;28.90;90.40
38866;DHT22;62686;48.984;8.394;2022-08-19T12:39:34;28.70;91.60
38866;DHT22;62686;48.984;8.394;2022-08-19T12:42:04;28.50;92.10
38866;DHT22;62686;48.984;8.394;2022-08-19T12:44:32;28.40;92.60
38866;DHT22;62686;48.984;8.394;2022-08-19T12:47:02;28.20;92.00
38866;DHT22;62686;48.984;8.394;2022-08-19T12:49:31;28.20;92.10
38866;DHT22;62686;48.984;8.394;2022-08-19T12:52:00;28.50;90.30
38866;DHT22;62686;48.984;8.394;2022-08-19T12:54:29;28.90;90.50
38866;DHT22;62686;48.984;8.394;2022-08-19T12:56:58;30.00;89.00
38866;DHT22;62686;48.984;8.394;2022-08-19T12:59:26;31.80;84.30
38866;DHT22;62686;48.984;8.394;2022-08-19T13:01:55;33.90;80.80
38866;DHT22;62686;48.984;8.394;2022-08-19T13:04:25;35.40;76.00
38866;DHT22;62686;48.984;8.394;2022-08-19T13:06:53;36.40;73.30
38866;DHT22;62686;48.984;8.394;2022-08-19T13:09:22;36.60;69.80
38866;DHT22;62686;48.984;8.394;2022-08-19T13:11:50;36.60;66.90
38866;DHT22;62686;48.984;8.394;2022-08-19T13:14:18;37.70;65.30
38866;DHT22;62686;48.984;8.394;2022-08-19T13:16:46;38.80;63.70
38866;DHT22;62686;48.984;8.394;2022-08-19T13:19:14;38.30;62.80
38866;DHT22;62686;48.984;8.394;2022-08-19T13:21:44;37.30;64.10
38866;DHT22;62686;48.984;8.394;2022-08-19T13:24:12;36.90;66.30
38866;DHT22;62686;48.984;8.394;2022-08-19T13:26:40;36.50;65.10
38866;DHT22;62686;48.984;8.394;2022-08-19T13:29:09;34.70;64.60
38866;DHT22;62686;48.984;8.394;2022-08-19T13:31:54;35.40;67.90
38866;DHT22;62686;48.984;8.394;2022-08-19T13:34:40;36.30;65.90
38866;DHT22;62686;48.984;8.394;2022-08-19T13:37:09;36.70;62.80
38866;DHT22;62686;48.984;8.394;2022-08-19T13:39:37;36.80;61.80
38866;DHT22;62686;48.984;8.394;2022-08-19T13:42:06;37.50;60.40
38866;DHT22;62686;48.984;8.394;2022-08-19T13:44:35;37.80;58.80
38866;DHT22;62686;48.984;8.394;2022-08-19T13:47:04;37.60;57.40
38866;DHT22;62686;48.984;8.394;2022-08-19T13:49:34;36.10;59.40
38866;DHT22;62686;48.984;8.394;2022-08-19T13:52:04;35.30;59.40
38866;DHT22;62686;48.984;8.394;2022-08-19T13:54:33;35.60;59.80
38866;DHT22;62686;48.984;8.394;2022-08-19T13:57:02;36.10;58.90
38866;DHT22;62686;48.984;8.394;2022-08-19T13:59:31;36.70;58.10
38866;DHT22;62686;48.984;8.394;2022-08-19T14:02:00;37.40;57.00
38866;DHT22;62686;48.984;8.394;2022-08-19T14:04:28;37.80;56.40
38866;DHT22;62686;48.984;8.394;2022-08-19T14:06:56;38.00;55.70
38866;DHT22;62686;48.984;8.394;2022-08-19T14:09:25;36.90;56.10
38866;DHT22;62686;48.984;8.394;2022-08-19T14:11:54;36.10;57.50
38866;DHT22;62686;48.984;8.394;2022-08-19T14:14:23;34.70;58.90
38866;DHT22;62686;48.984;8.394;2022-08-19T14:16:51;34.30;59.70
38866;DHT22;62686;48.984;8.394;2022-08-19T14:19:19;33.60;60.90
38866;DHT22;62686;48.984;8.394;2022-08-19T14:21:48;33.10;62.30
38866;DHT22;62686;48.984;8.394;2022-08-19T14:24:16;32.80;63.30
38866;DHT22;62686;48.984;8.394;2022-08-19T14:26:44;32.70;64.40
38866;DHT22;62686;48.984;8.394;2022-08-19T14:29:13;33.00;65.90
38866;DHT22;62686;48.984;8.394;2022-08-19T14:31:42;32.90;65.20
38866;DHT22;62686;48.984;8.394;2022-08-19T14:34:11;32.10;65.00
38866;DHT22;62686;48.984;8.394;2022-08-19T14:36:39;31.70;67.20
38866;DHT22;62686;48.984;8.394;2022-08-19T14:39:08;31.40;69.10
38866;DHT22;62686;48.984;8.394;2022-08-19T14:41:39;31.10;69.50
38866;DHT22;62686;48.984;8.394;2022-08-19T14:44:08;31.30;68.20
38866;DHT22;62686;48.984;8.394;2022-08-19T14:46:40;31.20;68.50
38866;DHT22;62686;48.984;8.394;2022-08-19T14:49:08;31.30;68.80
38866;DHT22;62686;48.984;8.394;2022-08-19T14:51:37;31.50;70.00
38866;DHT22;62686;48.984;8.394;2022-08-19T14:54:05;31.60;68.40
38866;DHT22;62686;48.984;8.394;2022-08-19T14:56:34;31.60;67.20
38866;DHT22;62686;48.984;8.394;2022-08-19T14:59:02;31.40;68.30
38866;DHT22;62686;48.984;8.394;2022-08-19T15:01:30;31.10;71.20
38866;DHT22;62686;48.984;8.394;2022-08-19T15:04:00;30.70;70.90
38866;DHT22;62686;48.984;8.394;2022-08-19T15:06:28;30.30;70.70
38866;DHT22;62686;48.984;8.394;2022-08-19T15:08:57;29.80;73.20
38866;DHT22;62686;48.984;8.394;2022-08-19T15:11:29;29.30;75.60
38866;DHT22;62686;48.984;8.394;2022-08-19T15:13:59;28.90;76.90
38866;DHT22;62686;48.984;8.394;2022-08-19T15:16:28;28.60;78.70
38866;DHT22;62686;48.984;8.394;2022-08-19T15:18:58;28.40;79.60
38866;DHT22;62686;48.984;8.394;2022-08-19T15:21:29;28.10;81.30
38866;DHT22;62686;48.984;8.394;2022-08-19T15:23:59;28.00;82.50
38866;DHT22;62686;48.984;8.394;2022-08-19T15:26:28;27.80;83.90
38866;DHT22;62686;48.984;8.394;2022-08-19T15:28:59;27.70;83.70
38866;DHT22;62686;48.984;8.394;2022-08-19T15:31:27;27.60;83.70
38866;DHT22;62686;48.984;8.394;2022-08-19T15:33:56;27.50;84.50
38866;DHT22;62686;48.984;8.394;2022-08-19T15:36:25;27.50;83.60
38866;DHT22;62686;48.984;8.394;2022-08-19T15:38:55;27.40;83.50
38866;DHT22;62686;48.984;8.394;2022-08-19T15:41:25;27.50;84.90
38866;DHT22;62686;48.984;8.394;2022-08-19T15:43:56;27.50;83.70
38866;DHT22;62686;48.984;8.394;2022-08-19T15:46:27;27.50;83.60
38866;DHT22;62686;48.984;8.394;2022-08-19T15:48:57;27.60;83.70